Astoria Regional Airport
KAST : rendu visible

Aérodrome :











RETROUVEZ-NOUS SUR...

 
LOGIN :

S'inscrire | Disclaimer

   EN    FR    IT 

 









Légende :    VFR   VFR Marginal   IFR   IFR Intensif   IFR Très Intensif
Visi : 
Plafond : 
>= 8 km
>= 3000ft
5 à 8 km
1000 à 3000 ft
1500m à 5 km
500 à 1000 ft
800 à 1500m
200 à 500 ft
< 800m
< 200 ft
Symboles :   Orages  Brouillard  Fortes neiges  Fortes précipitations  Vent > 20 kt






- Altitude de l'aérodrome : 15 ft


KAST - Astoria Regional

DERNIER METAR :
  • 210755Z AUTO 00000KT 10SM CLR 03/02 A3001 RMK AO2 SLP161 T00330022 401281006

METARs EXPIRÉS :
  • 210655Z AUTO 11004KT 10SM CLR 03/02 A3002 RMK AO2 SLP164 T00280017
  • 210555Z AUTO 07006KT 10SM CLR 06/03 A3003 RMK AO2 SLP168 T00610033 10111 20033 53000

TAF KAST
Valide du 21 à 06h jusqu'au 22 à 06h UTC


210520Z 2106/2206 07004KT P6SM SKC



MET'MAP, la Météo Aéronautique d'un coup d'oeil ! - Copyright ORBIFLY Décembre 2007 - Disclaimer

ORBIFLY MET'MAP TEAM :

Programmation & Développement : Alexandra Zaïnal
Conception & Développement : Baudouin d'Aumeries
Co-Programmation & Développement : Marc-Olivier Méhu
Soutien technique & logistique : Manuel Goepfert

Contact : metmap@orbifly.com




SOURCES & CREDITS :

   NOAA       Earth
Advisory